Time;durP1;ratioP1;P1;durP2;ratioP2;P2;SDS_P1;SDS_P2;PMS_P1;PMS_P2;Temp;Humidity;BMP_temperature;BMP_pressure;BME280_temperature;BME280_humidity;BME280_pressure;Samples;Min_cycle;Max_cycle;Signal;HPM_P1;HPM_P2
2023/04/03 00:00:56;;;;;;;3.22;2.25;;;2.50;99.90;;;;;;4996593;28;20041;-60
2023/04/03 00:03:22;;;;;;;8.63;2.63;;;2.50;99.90;;;;;;4993969;28;20045;-60
2023/04/03 00:05:48;;;;;;;3.38;2.10;;;2.50;99.90;;;;;;4994324;28;20034;-60
2023/04/03 00:08:15;;;;;;;2.40;1.80;;;2.50;99.90;;;;;;4995966;28;20124;-61
2023/04/03 00:10:40;;;;;;;3.45;1.50;;;2.50;99.90;;;;;;4992194;28;20022;-59
2023/04/03 00:13:07;;;;;;;2.28;1.65;;;2.60;99.90;;;;;;4999225;28;20040;-59
2023/04/03 00:15:34;;;;;;;2.85;1.88;;;2.60;99.90;;;;;;4998335;28;20030;-58
2023/04/03 00:18:00;;;;;;;4.25;1.50;;;2.70;99.90;;;;;;4995595;28;20453;-60
2023/04/03 00:20:27;;;;;;;3.95;1.80;;;2.70;99.90;;;;;;4998851;28;20121;-60
2023/04/03 00:22:53;;;;;;;4.18;1.48;;;2.70;99.90;;;;;;4999220;28;20033;-58
2023/04/03 00:25:19;;;;;;;3.25;1.60;;;2.80;99.90;;;;;;5000637;28;20092;-59
2023/04/03 00:27:44;;;;;;;6.80;1.90;;;2.90;99.90;;;;;;4998332;28;20038;-58
2023/04/03 00:30:13;;;;;;;2.42;1.65;;;3.00;99.90;;;;;;5000489;28;20057;-59
2023/04/03 00:32:39;;;;;;;3.25;2.05;;;3.00;99.90;;;;;;4997417;28;20035;-59
2023/04/03 00:35:05;;;;;;;3.97;2.28;;;3.00;99.90;;;;;;5000538;28;20782;-58
2023/04/03 00:37:31;;;;;;;5.63;2.08;;;3.00;99.90;;;;;;5001213;28;20482;-61
2023/04/03 00:39:56;;;;;;;3.55;2.38;;;3.00;99.90;;;;;;4999125;28;20034;-58
2023/04/03 00:42:22;;;;;;;2.20;1.73;;;3.10;99.90;;;;;;5002834;28;20632;-58
2023/04/03 00:45:11;;;;;;;3.53;2.38;;;3.10;99.90;;;;;;4997874;28;20030;-60
2023/04/03 00:47:38;;;;;;;2.50;1.77;;;3.20;99.90;;;;;;5001252;28;20125;-59
2023/04/03 00:50:05;;;;;;;4.63;2.80;;;3.20;99.90;;;;;;5000563;28;20029;-60
2023/04/03 00:52:31;;;;;;;5.63;2.40;;;3.20;99.90;;;;;;4998071;28;20063;-59
2023/04/03 00:55:02;;;;;;;3.42;2.53;;;3.20;99.90;;;;;;4999608;28;20038;-59
2023/04/03 00:57:30;;;;;;;;;;;3.20;99.90;;;;;;4999035;28;20035;-60
2023/04/03 01:00:01;;;;;;;11.32;3.33;;;3.30;99.90;;;;;;4999351;28;19924;-58
2023/04/03 01:02:27;;;;;;;3.13;2.30;;;3.30;99.90;;;;;;4998603;28;20030;-61
2023/04/03 01:04:52;;;;;;;3.88;2.63;;;3.30;99.90;;;;;;4997183;28;20044;-59
2023/04/03 01:07:21;;;;;;;5.22;2.58;;;3.30;99.90;;;;;;4999555;28;20034;-60
2023/04/03 01:09:50;;;;;;;3.50;2.72;;;3.20;99.90;;;;;;5001100;28;20022;-59
2023/04/03 01:12:20;;;;;;;5.88;3.10;;;3.20;99.90;;;;;;4999008;28;20027;-61
2023/04/03 01:14:47;;;;;;;5.13;2.87;;;3.20;99.90;;;;;;5000229;28;21567;-61
2023/04/03 01:17:39;;;;;;;7.82;2.75;;;3.10;99.90;;;;;;4994399;28;20263;-58
2023/04/03 01:20:11;;;;;;;6.97;3.28;;;3.10;99.90;;;;;;4998379;28;20046;-61
2023/04/03 01:23:01;;;;;;;3.28;2.83;;;3.10;99.90;;;;;;4999128;28;20037;-59
2023/04/03 01:25:27;;;;;;;4.72;2.92;;;3.10;99.90;;;;;;4995276;28;20403;-60
2023/04/03 01:27:53;;;;;;;5.28;2.90;;;3.10;99.90;;;;;;4999832;28;20035;-61
2023/04/03 01:30:24;;;;;;;6.68;3.17;;;3.10;99.90;;;;;;4994030;28;20046;-59
2023/04/03 01:32:49;;;;;;;4.72;2.50;;;3.10;99.90;;;;;;4994639;28;20042;-59
2023/04/03 01:35:15;;;;;;;4.97;2.92;;;3.10;99.90;;;;;;4996817;28;20088;-60
2023/04/03 01:37:41;;;;;;;5.82;2.95;;;3.10;99.90;;;;;;4998531;28;20794;-59
2023/04/03 01:40:07;;;;;;;4.32;2.83;;;3.20;99.90;;;;;;4996143;28;20160;-59
2023/04/03 01:42:33;;;;;;;3.90;2.67;;;3.20;99.90;;;;;;4995646;28;20038;-60
2023/04/03 01:44:59;;;;;;;6.15;3.15;;;3.20;99.90;;;;;;4995557;28;20420;-61
2023/04/03 01:47:25;;;;;;;5.65;3.55;;;3.20;99.90;;;;;;4999491;28;20189;-59
2023/04/03 01:49:50;;;;;;;7.38;3.95;;;3.20;99.90;;;;;;5000162;28;20638;-59
2023/04/03 01:52:16;;;;;;;5.20;3.38;;;3.20;99.90;;;;;;4997939;28;20509;-59
2023/04/03 01:54:41;;;;;;;6.28;2.75;;;3.20;99.90;;;;;;4997283;28;20034;-61
2023/04/03 01:57:07;;;;;;;9.23;5.97;;;3.20;99.90;;;;;;4997835;28;20034;-60
2023/04/03 01:59:33;;;;;;;5.35;3.33;;;3.20;99.90;;;;;;4996209;28;20033;-60
2023/04/03 02:01:58;;;;;;;8.27;3.78;;;3.20;99.90;;;;;;4999782;28;20574;-59
2023/04/03 02:04:24;;;;;;;17.52;7.20;;;3.20;99.90;;;;;;4998975;28;20121;-61
2023/04/03 02:06:50;;;;;;;6.72;3.28;;;3.10;99.90;;;;;;4997874;28;20038;-59
2023/04/03 02:09:15;;;;;;;11.60;4.25;;;3.10;99.90;;;;;;4996510;28;20034;-60
2023/04/03 02:11:41;;;;;;;5.22;3.40;;;3.00;99.90;;;;;;4999969;28;20031;-59
2023/04/03 02:14:07;;;;;;;20.65;8.88;;;2.90;99.90;;;;;;4994303;28;20018;-59
2023/04/03 02:16:32;;;;;;;26.65;10.57;;;2.90;99.90;;;;;;4995464;28;20518;-59
2023/04/03 02:18:58;;;;;;;18.70;8.65;;;2.80;99.90;;;;;;4998502;28;20060;-59
2023/04/03 02:21:24;;;;;;;9.90;3.38;;;2.70;99.90;;;;;;4997463;28;20046;-59
2023/04/03 02:23:49;;;;;;;4.13;2.85;;;2.70;99.90;;;;;;4995539;28;20533;-60
2023/04/03 02:26:16;;;;;;;3.83;3.15;;;2.70;99.90;;;;;;4995860;28;20030;-60
2023/04/03 02:28:42;;;;;;;4.18;2.72;;;2.70;99.90;;;;;;4997311;28;20068;-61
2023/04/03 02:31:09;;;;;;;6.03;2.70;;;2.70;99.90;;;;;;4997249;28;20062;-60
2023/04/03 02:33:36;;;;;;;4.43;2.97;;;2.70;99.90;;;;;;4996927;28;20026;-59
2023/04/03 02:36:06;;;;;;;3.78;2.53;;;2.80;99.90;;;;;;4996972;28;20601;-59
2023/04/03 02:38:32;;;;;;;9.50;2.53;;;2.70;99.90;;;;;;4996721;28;20026;-60
2023/04/03 02:41:05;;;;;;;6.13;2.72;;;2.70;99.90;;;;;;4997404;28;20045;-60
2023/04/03 02:43:31;;;;;;;12.23;4.30;;;2.70;99.90;;;;;;4996233;28;20034;-60
2023/04/03 02:45:57;;;;;;;4.80;2.10;;;2.60;99.90;;;;;;4995484;28;20034;-61
2023/04/03 02:48:23;;;;;;;6.93;2.30;;;2.60;99.90;;;;;;4996613;28;20936;-59
2023/04/03 02:50:49;;;;;;;6.95;2.80;;;2.50;99.90;;;;;;4997514;28;20027;-59
2023/04/03 02:53:15;;;;;;;9.00;4.53;;;2.50;99.90;;;;;;4994369;28;20084;-60
2023/04/03 02:55:41;;;;;;;15.10;4.40;;;2.40;99.90;;;;;;4997315;28;20034;-59
2023/04/03 02:58:06;;;;;;;5.88;2.63;;;2.40;99.90;;;;;;4996690;28;20062;-59
2023/04/03 03:00:32;;;;;;;4.50;2.55;;;2.30;99.90;;;;;;4995925;28;20552;-60
2023/04/03 03:02:58;;;;;;;5.90;2.67;;;2.30;99.90;;;;;;4995754;28;20590;-60
2023/04/03 03:05:23;;;;;;;3.05;2.25;;;2.30;99.90;;;;;;4994818;28;20044;-60
2023/04/03 03:07:49;;;;;;;2.95;2.28;;;2.30;99.90;;;;;;4995548;28;20073;-59
2023/04/03 03:10:15;;;;;;;11.07;4.97;;;2.30;99.90;;;;;;4996760;28;20050;-59
2023/04/03 03:12:40;;;;;;;4.35;2.53;;;2.30;99.90;;;;;;4995685;28;20028;-61
2023/04/03 03:15:07;;;;;;;6.10;3.42;;;2.30;99.90;;;;;;4996517;28;20485;-59
2023/04/03 03:17:32;;;;;;;7.32;3.83;;;2.30;99.90;;;;;;4995970;28;20049;-60
2023/04/03 03:19:58;;;;;;;5.78;2.58;;;2.20;99.90;;;;;;4996160;28;20657;-59
2023/04/03 03:22:24;;;;;;;6.45;4.10;;;2.30;99.90;;;;;;4996440;28;20364;-61
2023/04/03 03:24:49;;;;;;;7.93;3.67;;;2.30;99.90;;;;;;4995772;28;20038;-61
2023/04/03 03:27:15;;;;;;;28.40;8.65;;;2.30;99.90;;;;;;4996665;28;20018;-61
2023/04/03 03:29:42;;;;;;;5.75;3.45;;;2.30;99.90;;;;;;4991689;28;20535;-61
2023/04/03 03:32:07;;;;;;;3.78;2.70;;;2.30;99.90;;;;;;4994383;28;20037;-59
2023/04/03 03:34:33;;;;;;;5.25;3.60;;;2.40;99.90;;;;;;4999164;28;20034;-61
2023/04/03 03:36:59;;;;;;;5.70;3.78;;;2.40;99.90;;;;;;4996856;28;20030;-60
2023/04/03 03:39:25;;;;;;;5.35;2.92;;;2.50;99.90;;;;;;4996827;28;20053;-58
2023/04/03 03:41:53;;;;;;;3.92;3.28;;;2.40;99.90;;;;;;4994572;28;20041;-60
2023/04/03 03:44:19;;;;;;;4.50;2.20;;;2.50;99.90;;;;;;4994395;28;20469;-60
2023/04/03 03:46:45;;;;;;;4.25;2.42;;;2.50;99.90;;;;;;4999093;28;20022;-60
2023/04/03 03:49:11;;;;;;;7.30;2.67;;;2.50;99.90;;;;;;4996263;28;20084;-59
2023/04/03 03:51:37;;;;;;;5.15;2.45;;;2.50;99.90;;;;;;4998451;28;20042;-59
2023/04/03 03:54:03;;;;;;;9.25;3.05;;;2.50;99.90;;;;;;4998397;28;20569;-60
2023/04/03 03:56:29;;;;;;;5.57;3.05;;;2.40;99.90;;;;;;4996185;28;20756;-58
2023/04/03 03:58:56;;;;;;;7.25;3.60;;;2.40;99.90;;;;;;4997991;28;20058;-60
2023/04/03 04:01:22;;;;;;;8.35;6.38;;;2.40;99.90;;;;;;4998309;28;20511;-59
2023/04/03 04:03:48;;;;;;;15.07;7.65;;;2.40;99.90;;;;;;4999158;28;20390;-58
2023/04/03 04:06:14;;;;;;;7.18;5.50;;;2.40;99.90;;;;;;4999646;28;20120;-58
2023/04/03 04:08:40;;;;;;;7.53;4.40;;;2.40;99.90;;;;;;4997724;28;20046;-59
2023/04/03 04:11:06;;;;;;;9.00;4.70;;;2.40;99.90;;;;;;4998195;28;20061;-61
2023/04/03 04:13:31;;;;;;;5.43;3.53;;;2.30;99.90;;;;;;4999647;28;20061;-59
2023/04/03 04:15:57;;;;;;;5.13;3.63;;;2.30;99.90;;;;;;4997007;28;20037;-59
2023/04/03 04:18:23;;;;;;;4.47;3.55;;;2.30;99.90;;;;;;5002162;28;20030;-59
2023/04/03 04:20:49;;;;;;;4.65;2.58;;;2.30;99.90;;;;;;4997036;28;20096;-60
2023/04/03 04:23:16;;;;;;;6.35;2.58;;;2.30;99.90;;;;;;4998349;28;20435;-58
2023/04/03 04:25:45;;;;;;;3.88;2.50;;;2.20;99.90;;;;;;4999613;28;20030;-60
2023/04/03 04:28:11;;;;;;;5.53;3.05;;;2.20;99.90;;;;;;5000680;28;20109;-59
2023/04/03 04:30:36;;;;;;;4.97;3.25;;;2.20;99.90;;;;;;5000537;28;20443;-59
2023/04/03 04:33:02;;;;;;;4.68;3.03;;;2.20;99.90;;;;;;5003377;28;20073;-58
2023/04/03 04:35:28;;;;;;;3.45;2.40;;;2.10;99.90;;;;;;4998120;28;20114;-59
2023/04/03 04:37:54;;;;;;;6.20;2.97;;;2.10;99.90;;;;;;5000357;28;20041;-58
2023/04/03 04:40:19;;;;;;;8.90;2.95;;;2.00;99.90;;;;;;4998552;28;20100;-59
2023/04/03 04:42:45;;;;;;;8.00;4.32;;;2.00;99.90;;;;;;5001481;28;21224;-58
2023/04/03 04:45:11;;;;;;;9.57;3.80;;;2.00;99.90;;;;;;4996881;28;20527;-59
2023/04/03 04:47:36;;;;;;;5.85;3.17;;;1.90;99.90;;;;;;4997472;28;20444;-58
2023/04/03 04:50:03;;;;;;;7.43;4.22;;;1.90;99.90;;;;;;4996786;28;20030;-58
2023/04/03 04:52:28;;;;;;;7.82;3.72;;;1.90;99.90;;;;;;4999616;28;20030;-59
2023/04/03 04:54:54;;;;;;;9.15;3.50;;;1.80;99.90;;;;;;4999141;28;20498;-59
2023/04/03 04:57:19;;;;;;;5.95;3.67;;;1.80;99.90;;;;;;4995612;28;20030;-60
2023/04/03 04:59:45;;;;;;;6.32;4.35;;;1.80;99.90;;;;;;4999419;28;20045;-60
2023/04/03 05:02:11;;;;;;;5.32;4.30;;;1.80;99.90;;;;;;4996346;28;20387;-59
2023/04/03 05:04:37;;;;;;;6.95;4.25;;;1.80;99.90;;;;;;4998561;28;20044;-59
2023/04/03 05:07:02;;;;;;;4.90;3.25;;;1.70;99.90;;;;;;4996533;28;20038;-58
2023/04/03 05:09:28;;;;;;;5.13;3.65;;;1.70;99.90;;;;;;4997006;28;20257;-59
2023/04/03 05:11:54;;;;;;;8.63;4.20;;;1.70;99.90;;;;;;4993450;28;20031;-59
2023/04/03 05:14:20;;;;;;;9.05;5.03;;;1.70;99.90;;;;;;4997003;28;20201;-59
2023/04/03 05:16:45;;;;;;;7.32;5.10;;;1.70;99.90;;;;;;4992636;28;20121;-58
2023/04/03 05:19:11;;;;;;;11.13;6.45;;;1.70;99.90;;;;;;4998006;28;20031;-60
2023/04/03 05:21:37;;;;;;;8.23;4.03;;;1.70;99.90;;;;;;4998084;28;20038;-59
2023/04/03 05:24:02;;;;;;;7.70;5.30;;;1.70;99.90;;;;;;4996995;28;20030;-59
2023/04/03 05:26:30;;;;;;;10.43;5.55;;;1.70;99.90;;;;;;4997635;28;20498;-59
2023/04/03 05:28:56;;;;;;;12.82;5.05;;;1.70;99.90;;;;;;4997913;28;20403;-59
2023/04/03 05:31:21;;;;;;;9.38;6.07;;;1.80;99.90;;;;;;4997648;28;20097;-59
2023/04/03 05:33:47;;;;;;;7.28;5.13;;;1.80;99.90;;;;;;4994901;28;20483;-59
2023/04/03 05:36:13;;;;;;;7.00;4.55;;;1.80;99.90;;;;;;4996649;28;20122;-60
2023/04/03 05:38:39;;;;;;;9.60;7.28;;;1.80;99.90;;;;;;4994724;28;20042;-59
2023/04/03 05:41:05;;;;;;;8.85;5.20;;;1.80;99.90;;;;;;4996951;28;20627;-58
2023/04/03 05:43:31;;;;;;;10.23;4.75;;;1.90;99.90;;;;;;4994586;28;20026;-58
2023/04/03 05:45:56;;;;;;;15.30;5.72;;;1.90;99.90;;;;;;4993656;28;20779;-59
2023/04/03 05:48:22;;;;;;;9.20;5.70;;;1.90;99.90;;;;;;4995674;28;20026;-59
2023/04/03 05:50:48;;;;;;;7.88;4.95;;;1.90;99.90;;;;;;4995903;28;20075;-59
2023/04/03 05:53:24;;;;;;;12.80;8.00;;;1.90;99.90;;;;;;4998101;28;20026;-61
2023/04/03 05:55:50;;;;;;;10.80;5.13;;;2.00;99.90;;;;;;4995796;28;20449;-60
2023/04/03 05:58:16;;;;;;;10.13;5.32;;;2.00;99.90;;;;;;4994976;28;20050;-61
2023/04/03 06:00:42;;;;;;;10.10;3.90;;;2.00;99.90;;;;;;4996270;28;20119;-58
2023/04/03 06:03:07;;;;;;;5.15;4.20;;;2.10;99.90;;;;;;4994606;28;20026;-59
2023/04/03 06:05:33;;;;;;;6.82;5.00;;;2.00;99.90;;;;;;4997406;28;20042;-59
2023/04/03 06:07:59;;;;;;;6.50;4.72;;;2.10;99.90;;;;;;4992795;28;20053;-58
2023/04/03 06:10:24;;;;;;;4.32;3.63;;;2.00;99.90;;;;;;5000657;28;20036;-60
2023/04/03 06:12:51;;;;;;;6.90;4.35;;;2.00;99.90;;;;;;4996516;28;20359;-60
2023/04/03 06:15:17;;;;;;;6.47;4.25;;;2.00;99.90;;;;;;4995958;28;20033;-60
2023/04/03 06:17:43;;;;;;;5.05;4.00;;;2.10;99.90;;;;;;4995445;28;20027;-60
2023/04/03 06:20:09;;;;;;;6.22;3.90;;;2.20;99.90;;;;;;4993751;28;20026;-61
2023/04/03 06:22:35;;;;;;;5.50;4.07;;;2.30;99.90;;;;;;4998814;28;20540;-59
2023/04/03 06:25:01;;;;;;;10.23;4.45;;;2.40;99.90;;;;;;4992928;28;20392;-61
2023/04/03 06:27:27;;;;;;;7.28;3.80;;;2.50;99.90;;;;;;4998389;28;20106;-59
2023/04/03 06:29:53;;;;;;;6.60;4.95;;;2.60;99.90;;;;;;4979464;28;20043;-58
2023/04/03 06:32:18;;;;;;;5.65;5.00;;;2.70;99.90;;;;;;4996953;28;20406;-60
2023/04/03 06:34:45;;;;;;;8.30;5.10;;;2.80;99.90;;;;;;5004037;28;20018;-58
2023/04/03 06:37:18;;;;;;;6.63;5.00;;;2.80;99.90;;;;;;4995127;28;20117;-60
2023/04/03 06:39:45;;;;;;;6.38;4.05;;;2.80;99.90;;;;;;4994972;28;20029;-60
2023/04/03 06:42:10;;;;;;;8.43;4.40;;;2.90;99.90;;;;;;4993090;28;20058;-61
2023/04/03 06:44:36;;;;;;;7.45;3.80;;;2.90;99.90;;;;;;4995471;28;20547;-60
2023/04/03 06:47:02;;;;;;;8.30;4.68;;;3.00;99.90;;;;;;4997370;28;20555;-60
2023/04/03 06:49:28;;;;;;;8.15;4.22;;;3.10;99.90;;;;;;4996115;28;20038;-60
2023/04/03 06:51:55;;;;;;;3.30;2.83;;;3.10;99.90;;;;;;4999314;28;20574;-60
2023/04/03 06:54:22;;;;;;;8.10;3.10;;;3.20;99.90;;;;;;4997419;28;20034;-59
2023/04/03 06:56:47;;;;;;;10.73;3.50;;;3.20;99.90;;;;;;4997901;28;20511;-60
2023/04/03 06:59:16;;;;;;;5.60;2.90;;;3.20;99.90;;;;;;4997270;28;20061;-59
2023/04/03 07:01:41;;;;;;;11.05;3.33;;;3.20;99.90;;;;;;4998779;28;20022;-60
2023/04/03 07:04:08;;;;;;;3.95;2.78;;;3.30;99.90;;;;;;5000133;28;20498;-60
2023/04/03 07:06:34;;;;;;;4.95;2.90;;;3.30;99.90;;;;;;4993805;28;20066;-61
2023/04/03 07:09:01;;;;;;;5.90;3.22;;;3.40;99.90;;;;;;4993331;28;20018;-61
2023/04/03 07:11:27;;;;;;;5.15;3.15;;;3.50;99.90;;;;;;4993676;28;20447;-60
2023/04/03 07:13:53;;;;;;;6.20;2.95;;;3.50;99.90;;;;;;5003267;28;20025;-61
2023/04/03 07:16:19;;;;;;;4.18;2.50;;;3.70;99.90;;;;;;4997041;28;20022;-60
2023/04/03 07:18:45;;;;;;;3.90;2.65;;;3.70;99.90;;;;;;4993913;28;20584;-59
2023/04/03 07:21:11;;;;;;;6.57;3.13;;;3.80;99.90;;;;;;4996740;28;20038;-59
2023/04/03 07:23:37;;;;;;;6.63;2.97;;;3.70;99.90;;;;;;5000584;28;20490;-59
2023/04/03 07:26:03;;;;;;;6.13;3.65;;;3.60;99.90;;;;;;5003240;28;20026;-60
2023/04/03 07:28:29;;;;;;;4.78;3.78;;;3.50;99.90;;;;;;5002263;28;20517;-59
2023/04/03 07:31:16;;;;;;;3.97;3.35;;;3.50;99.90;;;;;;5000999;28;20509;-59
2023/04/03 07:33:43;;;;;;;4.88;3.60;;;3.50;99.90;;;;;;4999398;28;20030;-59
2023/04/03 07:36:09;;;;;;;4.68;3.05;;;3.40;99.90;;;;;;4998179;28;20034;-60
2023/04/03 07:38:36;;;;;;;3.80;2.75;;;3.30;99.90;;;;;;5000708;28;20384;-58
2023/04/03 07:41:03;;;;;;;3.67;2.75;;;3.30;99.90;;;;;;5002038;28;20542;-59
2023/04/03 07:43:29;;;;;;;4.43;3.58;;;3.20;99.90;;;;;;4999951;28;20026;-58
2023/04/03 07:45:54;;;;;;;6.57;2.67;;;3.10;99.90;;;;;;5001715;28;20049;-58
2023/04/03 07:48:22;;;;;;;5.65;3.78;;;2.90;99.90;;;;;;5002245;28;20056;-59
2023/04/03 07:50:48;;;;;;;6.55;3.85;;;2.80;99.90;;;;;;4998424;28;20038;-60
2023/04/03 07:53:14;;;;;;;5.35;3.63;;;2.80;99.90;;;;;;5001090;28;20022;-60
2023/04/03 07:55:42;;;;;;;5.38;3.13;;;2.90;99.90;;;;;;5000445;28;20035;-59
2023/04/03 07:58:14;;;;;;;4.30;2.33;;;3.00;99.90;;;;;;4998714;28;20438;-58
2023/04/03 08:00:40;;;;;;;4.03;3.17;;;3.10;99.90;;;;;;5000900;28;20046;-59
2023/04/03 08:03:06;;;;;;;5.00;2.78;;;3.20;99.90;;;;;;5000465;28;20026;-59
2023/04/03 08:05:31;;;;;;;5.60;3.47;;;3.30;99.90;;;;;;4996059;28;20109;-59
2023/04/03 08:07:57;;;;;;;5.28;2.88;;;3.40;99.90;;;;;;5000868;28;20134;-57
2023/04/03 08:10:23;;;;;;;6.30;3.13;;;3.40;99.90;;;;;;5000837;28;20589;-58
2023/04/03 08:12:48;;;;;;;4.82;3.15;;;3.50;99.90;;;;;;5000094;28;20038;-58
2023/04/03 08:15:15;;;;;;;3.70;2.88;;;3.50;99.90;;;;;;4996081;28;20027;-58
2023/04/03 08:17:41;;;;;;;5.57;3.03;;;3.50;99.90;;;;;;4999274;28;20042;-58
2023/04/03 08:20:09;;;;;;;4.47;2.90;;;3.40;99.90;;;;;;4997735;28;20030;-58
2023/04/03 08:22:35;;;;;;;4.32;2.40;;;3.40;99.10;;;;;;4997063;28;20048;-58
2023/04/03 08:25:01;;;;;;;4.97;2.38;;;3.20;98.40;;;;;;4999555;28;20034;-59
2023/04/03 08:27:28;;;;;;;3.72;2.63;;;3.20;98.60;;;;;;5000882;28;20507;-58
2023/04/03 08:29:54;;;;;;;3.15;1.80;;;3.10;99.80;;;;;;5002258;28;20137;-56
2023/04/03 08:32:20;;;;;;;2.17;1.55;;;3.10;97.50;;;;;;4999731;28;20698;-59
2023/04/03 08:34:46;;;;;;;3.13;2.42;;;3.10;95.70;;;;;;5001041;28;20028;-59
2023/04/03 08:37:12;;;;;;;3.25;1.50;;;3.10;95.30;;;;;;4999092;28;20380;-59
2023/04/03 08:39:37;;;;;;;5.38;1.50;;;3.20;96.30;;;;;;4997479;28;20045;-57
2023/04/03 08:42:30;;;;;;;9.63;1.70;;;3.30;93.40;;;;;;4997767;28;20029;-58
2023/04/03 08:45:09;;;;;;;2.20;1.48;;;3.40;94.50;;;;;;4993601;28;20027;-57
2023/04/03 08:47:47;;;;;;;2.00;1.70;;;3.60;94.00;;;;;;4997583;28;20126;-58
2023/04/03 08:50:21;;;;;;;4.68;1.75;;;3.80;94.40;;;;;;5001332;28;20050;-57
2023/04/03 08:52:55;;;;;;;2.47;1.70;;;4.10;93.80;;;;;;5002346;28;20034;-59
2023/04/03 08:55:32;;;;;;;6.00;2.25;;;4.30;93.90;;;;;;5001492;28;20092;-58
2023/04/03 08:58:09;;;;;;;2.65;1.63;;;4.70;94.60;;;;;;5000272;28;20049;-59
2023/04/03 09:00:44;;;;;;;3.42;2.13;;;5.10;93.90;;;;;;4999408;28;20056;-57
2023/04/03 09:03:13;;;;;;;1.77;1.40;;;5.40;89.50;;;;;;4999878;28;20386;-58
2023/04/03 09:06:05;;;;;;;2.25;1.63;;;5.30;84.00;;;;;;4996213;28;20139;-57
2023/04/03 09:08:51;;;;;;;1.98;1.33;;;5.00;81.60;;;;;;4998943;28;20031;-59
2023/04/03 09:11:29;;;;;;;4.07;1.50;;;4.70;82.90;;;;;;4995535;28;20053;-58
2023/04/03 09:14:06;;;;;;;2.85;1.35;;;4.40;83.30;;;;;;4997738;28;20034;-57
2023/04/03 09:16:59;;;;;;;5.13;1.45;;;4.40;87.00;;;;;;5000376;28;20045;-58
2023/04/03 09:19:33;;;;;;;2.38;1.20;;;5.70;87.30;;;;;;4999554;28;20065;-57
2023/04/03 09:22:15;;;;;;;5.22;1.30;;;7.00;77.30;;;;;;4997466;28;20557;-59
2023/04/03 09:24:43;;;;;;;6.55;1.30;;;7.00;75.00;;;;;;4998139;28;20040;-58
2023/04/03 09:27:11;;;;;;;1.52;1.00;;;6.70;78.00;;;;;;5000588;28;20122;-58
2023/04/03 09:29:47;;;;;;;3.83;1.50;;;6.30;74.70;;;;;;4997810;28;20027;-59
2023/04/03 09:32:27;;;;;;;2.55;1.58;;;5.60;76.80;;;;;;4994956;28;20037;-57
2023/04/03 09:34:56;;;;;;;3.15;1.30;;;5.40;79.10;;;;;;4999176;28;20041;-57
2023/04/03 09:37:33;;;;;;;3.83;1.50;;;5.10;81.30;;;;;;4996213;28;20033;-58
2023/04/03 09:39:59;;;;;;;4.05;1.73;;;5.20;81.70;;;;;;4996047;28;20041;-58
2023/04/03 09:42:26;;;;;;;2.67;1.30;;;5.20;81.90;;;;;;4998934;28;20027;-57
2023/04/03 09:44:56;;;;;;;3.03;1.48;;;5.30;82.50;;;;;;4996946;28;20105;-57
2023/04/03 09:47:27;;;;;;;2.40;1.48;;;5.50;79.80;;;;;;4997087;28;20026;-58
2023/04/03 09:50:12;;;;;;;4.38;1.63;;;5.40;76.40;;;;;;4999570;28;20030;-58
2023/04/03 09:52:39;;;;;;;3.05;1.30;;;5.30;79.40;;;;;;4994653;28;20076;-59
2023/04/03 09:55:14;;;;;;;2.03;1.20;;;6.10;79.40;;;;;;4995694;28;20045;-60
2023/04/03 09:57:40;;;;;;;1.95;1.40;;;7.10;77.90;;;;;;4997465;28;20054;-59
2023/04/03 10:00:19;;;;;;;2.03;1.55;;;8.30;69.80;;;;;;4996777;28;20073;-59
2023/04/03 10:02:49;;;;;;;1.88;1.17;;;9.20;72.30;;;;;;4996763;28;20031;-58
2023/04/03 10:05:44;;;;;;;2.00;1.10;;;9.80;66.50;;;;;;4995331;28;20013;-60
2023/04/03 10:08:13;;;;;;;3.00;1.10;;;10.10;64.60;;;;;;4995468;28;20073;-59
2023/04/03 10:10:40;;;;;;;2.33;1.25;;;10.50;63.00;;;;;;4999258;28;20057;-59
2023/04/03 10:13:12;;;;;;;2.22;1.05;;;10.60;64.70;;;;;;4997669;28;20053;-59
2023/04/03 10:16:04;;;;;;;2.85;1.20;;;11.00;61.10;;;;;;4996786;28;20045;-58
2023/04/03 10:18:29;;;;;;;3.63;1.70;;;11.10;67.90;;;;;;4996972;28;20061;-58
2023/04/03 10:21:12;;;;;;;3.65;1.80;;;11.20;58.70;;;;;;4997290;28;20038;-58
2023/04/03 10:23:49;;;;;;;2.28;1.80;;;10.80;58.70;;;;;;4996130;28;20514;-57
2023/04/03 10:26:42;;;;;;;2.95;1.98;;;10.20;59.10;;;;;;4995533;28;20084;-59
2023/04/03 10:29:40;;;;;;;3.83;1.52;;;9.40;60.70;;;;;;4996643;28;20026;-57
2023/04/03 10:32:28;;;;;;;4.88;1.42;;;9.00;61.70;;;;;;4994537;28;20046;-57
2023/04/03 10:35:22;;;;;;;2.92;1.85;;;9.00;63.00;;;;;;4997299;28;20129;-58
2023/04/03 10:38:00;;;;;;;1.83;1.40;;;9.10;62.80;;;;;;4994762;28;20089;-58
2023/04/03 10:40:33;;;;;;;1.83;1.45;;;9.00;60.40;;;;;;4996824;28;20137;-58
2023/04/03 10:43:19;;;;;;;2.67;1.40;;;8.70;60.50;;;;;;4997590;28;20491;-59
2023/04/03 10:45:48;;;;;;;2.08;1.45;;;8.40;62.10;;;;;;4994449;28;20542;-57
2023/04/03 10:48:32;;;;;;;1.45;1.30;;;8.10;61.70;;;;;;4997777;28;20022;-59
2023/04/03 10:51:01;;;;;;;1.60;1.40;;;7.80;64.40;;;;;;4995817;28;20060;-59
2023/04/03 10:53:34;;;;;;;3.08;1.52;;;7.80;65.80;;;;;;4994640;28;20030;-59
2023/04/03 10:56:06;;;;;;;2.67;1.58;;;7.90;64.70;;;;;;4994854;28;20022;-58
2023/04/03 10:58:41;;;;;;;3.78;1.70;;;7.90;62.70;;;;;;4993323;28;20149;-59
2023/04/03 11:01:11;;;;;;;3.15;1.30;;;7.70;66.50;;;;;;4992030;28;20037;-58
2023/04/03 11:03:48;;;;;;;2.45;1.65;;;7.70;64.90;;;;;;4996343;28;20135;-59
2023/04/03 11:06:16;;;;;;;1.38;1.10;;;7.60;65.30;;;;;;4993439;28;20070;-56
2023/04/03 11:08:50;;;;;;;3.80;1.63;;;7.40;63.80;;;;;;5000679;28;20034;-59
2023/04/03 11:11:25;;;;;;;2.13;1.27;;;7.50;70.70;;;;;;4996305;28;20259;-58
2023/04/03 11:14:03;;;;;;;1.52;1.00;;;7.60;62.20;;;;;;4994386;28;20061;-58
2023/04/03 11:16:33;;;;;;;2.88;1.50;;;7.30;61.00;;;;;;4993805;28;20038;-57
2023/04/03 11:19:12;;;;;;;3.30;1.43;;;6.90;65.80;;;;;;5000858;28;20042;-58
2023/04/03 11:21:46;;;;;;;1.92;1.25;;;6.90;67.00;;;;;;4995747;28;20093;-59
2023/04/03 11:24:26;;;;;;;1.95;1.35;;;7.00;66.70;;;;;;4996827;28;20034;-59
2023/04/03 11:26:54;;;;;;;2.58;2.20;;;7.10;68.00;;;;;;4999327;28;20045;-58
2023/04/03 11:29:29;;;;;;;1.75;1.02;;;7.40;70.10;;;;;;4996030;28;20114;-57
2023/04/03 11:32:25;;;;;;;4.75;1.40;;;7.60;66.60;;;;;;4995879;28;20579;-57
2023/04/03 11:34:58;;;;;;;9.63;5.82;;;7.80;67.50;;;;;;4998697;28;20041;-59
2023/04/03 11:37:44;;;;;;;2.00;1.27;;;7.90;68.80;;;;;;4994413;28;20045;-57
2023/04/03 11:40:17;;;;;;;1.20;1.00;;;7.60;63.60;;;;;;4995814;28;20035;-58
2023/04/03 11:42:46;;;;;;;2.45;1.58;;;7.40;63.90;;;;;;4994521;28;20104;-59
2023/04/03 11:45:29;;;;;;;3.95;1.50;;;7.00;66.50;;;;;;4996591;28;20117;-57
2023/04/03 11:47:59;;;;;;;2.88;1.20;;;6.80;66.70;;;;;;4995720;28;20554;-59
2023/04/03 11:50:48;;;;;;;1.58;1.25;;;7.00;71.70;;;;;;4997936;28;20044;-59
2023/04/03 11:53:14;;;;;;;2.88;1.38;;;7.30;68.20;;;;;;4995020;28;20042;-59
2023/04/03 11:55:49;;;;;;;2.42;1.20;;;7.60;68.20;;;;;;4996961;28;20037;-59
2023/04/03 11:58:19;;;;;;;1.73;1.13;;;8.10;68.80;;;;;;4994354;28;20435;-58
2023/04/03 12:00:49;;;;;;;1.83;0.98;;;8.40;63.30;;;;;;4995945;28;20046;-60
2023/04/03 12:03:26;;;;;;;1.37;0.97;;;8.30;61.10;;;;;;4998679;28;20022;-58
2023/04/03 12:05:57;;;;;;;3.63;1.30;;;8.30;63.90;;;;;;4995829;28;20041;-58
2023/04/03 12:08:29;;;;;;;2.38;0.90;;;8.30;61.00;;;;;;4997316;28;20023;-59
2023/04/03 12:11:10;;;;;;;3.90;1.50;;;8.30;64.00;;;;;;4997599;28;20035;-58
2023/04/03 12:13:56;;;;;;;2.47;1.73;;;8.30;64.20;;;;;;5001385;28;20038;-59
2023/04/03 12:16:24;;;;;;;5.35;1.85;;;7.90;64.10;;;;;;4999222;28;20041;-59
2023/04/03 12:18:58;;;;;;;2.97;1.20;;;7.60;65.10;;;;;;5001431;28;20125;-58
2023/04/03 12:21:30;;;;;;;2.08;1.10;;;7.30;65.10;;;;;;4999490;28;20728;-58
2023/04/03 12:24:07;;;;;;;2.80;0.93;;;6.90;67.80;;;;;;4998650;28;20030;-57
2023/04/03 12:27:02;;;;;;;4.60;1.38;;;6.70;68.50;;;;;;5007176;28;20041;-58
2023/04/03 12:29:32;;;;;;;2.33;1.40;;;6.40;67.80;;;;;;5002569;28;20034;-57
2023/04/03 12:32:03;;;;;;;4.20;1.65;;;6.50;70.20;;;;;;4959074;28;20469;-59
2023/04/03 12:34:56;;;;;;;3.00;0.98;;;6.90;68.50;;;;;;4999510;28;20033;-57
2023/04/03 12:37:47;;;;;;;2.03;1.20;;;6.80;65.00;;;;;;5000763;28;20037;-58
2023/04/03 12:40:37;;;;;;;2.60;1.20;;;6.60;67.00;;;;;;4998811;28;20026;-57
2023/04/03 12:43:25;;;;;;;2.90;1.30;;;6.70;66.40;;;;;;5001771;28;20018;-59
2023/04/03 12:46:09;;;;;;;2.58;1.20;;;6.90;63.70;;;;;;5002006;28;20045;-58
2023/04/03 12:48:56;;;;;;;1.70;1.08;;;7.10;63.70;;;;;;4996786;28;20034;-59
2023/04/03 12:51:44;;;;;;;3.17;1.08;;;7.40;67.70;;;;;;4997308;28;20023;-59
2023/04/03 12:54:39;;;;;;;1.85;0.95;;;7.80;65.90;;;;;;4996510;28;20107;-58
2023/04/03 12:57:24;;;;;;;2.38;0.90;;;7.80;62.80;;;;;;5002307;28;20028;-58
2023/04/03 12:59:50;;;;;;;2.58;1.20;;;7.80;59.50;;;;;;5003100;28;20041;-57
2023/04/03 13:02:20;;;;;;;3.33;0.98;;;7.30;62.30;;;;;;4984003;28;20026;-57
2023/04/03 13:04:46;;;;;;;2.00;1.00;;;7.30;64.60;;;;;;5000336;28;20038;-58
2023/04/03 13:07:28;;;;;;;2.47;2.08;;;7.40;63.00;;;;;;4995566;28;20034;-57
2023/04/03 13:10:13;;;;;;;1.95;1.05;;;7.60;64.10;;;;;;4997605;28;20026;-57